createdAt,value
2022-10-28T00:02:21.889Z,101775.63
2022-10-28T00:04:51.166Z,101778.81
2022-10-28T00:07:20.370Z,101768.75
2022-10-28T00:09:50.598Z,101763.69
2022-10-28T00:12:19.822Z,101766.75
2022-10-28T00:14:49.165Z,101765.09
2022-10-28T00:17:18.477Z,101763.62
2022-10-28T00:19:47.819Z,101764.78
2022-10-28T00:22:17.080Z,101763.32
2022-10-28T00:24:46.601Z,101762.06
2022-10-28T00:27:15.973Z,101764.38
2022-10-28T00:29:45.315Z,101763.80
2022-10-28T00:32:14.789Z,101763.93
2022-10-28T00:34:44.172Z,101757.44
2022-10-28T00:37:13.600Z,101756.14
2022-10-28T00:39:42.887Z,101755.80
2022-10-28T00:42:12.715Z,101752.70
2022-10-28T00:44:51.132Z,101751.75
2022-10-28T00:47:29.438Z,101747.85
2022-10-28T00:50:07.523Z,101750.05
2022-10-28T00:52:37.122Z,101751.66
2022-10-28T00:55:06.914Z,101749.88
2022-10-28T00:57:38.207Z,101755.45
2022-10-28T01:00:08.985Z,101752.11
2022-10-28T01:02:41.591Z,101754.39
2022-10-28T01:05:10.704Z,101749.59
2022-10-28T01:07:39.898Z,101747.69
2022-10-28T01:10:09.868Z,101744.56
2022-10-28T01:12:42.526Z,101743.72
2022-10-28T01:15:29.644Z,101744.09
2022-10-28T01:18:11.535Z,101738.20
2022-10-28T01:20:56.246Z,101732.83
2022-10-28T01:23:31.647Z,101733.78
2022-10-28T01:26:22.000Z,101733.70
2022-10-28T01:29:09.810Z,101731.82
2022-10-28T01:32:00.058Z,101731.32
2022-10-28T01:34:35.320Z,101721.20
2022-10-28T01:37:13.414Z,101714.70
2022-10-28T01:39:51.523Z,101707.48
2022-10-28T01:42:30.031Z,101698.58
2022-10-28T01:45:22.916Z,101705.78
2022-10-28T01:47:58.207Z,101700.72
2022-10-28T01:50:39.851Z,101705.38
2022-10-28T01:53:18.086Z,101714.38
2022-10-28T01:55:50.185Z,101716.38
2022-10-28T01:58:21.991Z,101713.45
2022-10-28T02:00:51.969Z,101717.02
2022-10-28T02:03:21.245Z,101719.67
2022-10-28T02:05:56.339Z,101718.83
2022-10-28T02:08:28.712Z,101717.16
2022-10-28T02:11:17.917Z,101709.81
2022-10-28T02:13:56.643Z,101708.77
2022-10-28T02:16:51.012Z,101707.41
2022-10-28T02:19:23.455Z,101701.81
2022-10-28T02:22:01.480Z,101698.20
2022-10-28T02:24:43.028Z,101705.52
2022-10-28T02:27:39.597Z,101700.95
2022-10-28T02:30:12.212Z,101705.36
2022-10-28T02:32:41.680Z,101699.69
2022-10-28T02:35:14.012Z,101711.48
2022-10-28T02:37:46.211Z,101708.83
2022-10-28T02:40:18.594Z,101710.45
2022-10-28T02:42:54.015Z,101702.36
2022-10-28T02:45:35.268Z,101699.38
2022-10-28T02:48:23.205Z,101697.95
2022-10-28T02:50:54.846Z,101698.05
2022-10-28T02:53:30.249Z,101701.59
2022-10-28T02:56:01.308Z,101707.16
2022-10-28T02:58:31.076Z,101702.80
2022-10-28T03:01:00.339Z,101696.78
2022-10-28T03:03:29.676Z,101698.38
2022-10-28T03:05:59.677Z,101697.00
2022-10-28T03:08:29.080Z,101698.86
2022-10-28T03:10:58.288Z,101700.67
2022-10-28T03:13:27.527Z,101694.96
2022-10-28T03:15:56.798Z,101696.56
2022-10-28T03:18:26.294Z,101690.16
2022-10-28T03:20:58.149Z,101694.55
2022-10-28T03:23:26.466Z,101692.34
2022-10-28T03:25:55.716Z,101685.77
2022-10-28T03:28:25.041Z,101690.46
2022-10-28T03:30:54.280Z,101675.64
2022-10-28T03:33:23.689Z,101674.23
2022-10-28T03:35:52.924Z,101676.63
2022-10-28T03:38:22.148Z,101678.49
2022-10-28T03:40:52.404Z,101673.98
2022-10-28T03:43:21.780Z,101681.80
2022-10-28T03:45:51.087Z,101671.80
2022-10-28T03:48:20.408Z,101675.08
2022-10-28T03:50:54.471Z,101668.63
2022-10-28T03:53:27.553Z,101665.36
2022-10-28T03:55:56.914Z,101674.23
2022-10-28T03:58:26.739Z,101677.45
2022-10-28T04:00:57.017Z,101674.23
2022-10-28T04:03:26.871Z,101675.64
2022-10-28T04:05:56.112Z,101679.62
2022-10-28T04:08:25.414Z,101674.94
2022-10-28T04:10:54.633Z,101674.94
2022-10-28T04:13:23.892Z,101672.56
2022-10-28T04:15:53.104Z,101669.86
2022-10-28T04:18:22.523Z,101673.89
2022-10-28T04:20:51.740Z,101670.05
2022-10-28T04:23:21.129Z,101676.21
2022-10-28T04:25:55.046Z,101674.13
2022-10-28T04:28:27.945Z,101668.25
2022-10-28T04:30:57.160Z,101665.59
2022-10-28T04:33:26.654Z,101663.09
2022-10-28T04:35:56.018Z,101661.25
2022-10-28T04:38:25.785Z,101666.98
2022-10-28T04:40:55.191Z,101674.97
2022-10-28T04:43:24.637Z,101671.52
2022-10-28T04:45:53.925Z,101668.11
2022-10-28T04:48:23.359Z,101662.47
2022-10-28T04:50:53.338Z,101661.56
2022-10-28T04:53:22.562Z,101655.89
2022-10-28T04:55:51.786Z,101666.98
2022-10-28T04:58:21.043Z,101666.16
2022-10-28T05:00:50.243Z,101662.23
2022-10-28T05:03:19.557Z,101663.98
2022-10-28T05:05:49.149Z,101669.58
2022-10-28T05:08:18.490Z,101669.72
2022-10-28T05:10:49.717Z,101673.13
2022-10-28T05:13:19.813Z,101674.94
2022-10-28T05:15:50.209Z,101674.94
2022-10-28T05:18:19.812Z,101675.56
2022-10-28T05:20:50.818Z,101672.91
2022-10-28T05:23:20.303Z,101658.26
2022-10-28T05:25:50.359Z,101660.48
2022-10-28T05:28:21.738Z,101660.48
2022-10-28T05:30:51.115Z,101658.68
2022-10-28T05:33:20.509Z,101666.98
2022-10-28T05:35:50.212Z,101663.51
2022-10-28T05:38:19.590Z,101660.00
2022-10-28T05:40:48.792Z,101653.56
2022-10-28T05:43:18.123Z,101652.05
2022-10-28T05:45:55.130Z,101642.39
2022-10-28T05:48:24.863Z,101646.65
2022-10-28T05:50:54.064Z,101643.66
2022-10-28T05:53:23.615Z,101647.91
2022-10-28T05:55:52.848Z,101648.68
2022-10-28T05:58:22.088Z,101644.94
2022-10-28T06:00:51.306Z,101651.14
2022-10-28T06:03:20.737Z,101652.71
2022-10-28T06:05:50.034Z,101643.28
2022-10-28T06:08:19.535Z,101649.86
2022-10-28T06:10:54.879Z,101654.12
2022-10-28T06:13:24.648Z,101645.83
2022-10-28T06:15:55.229Z,101650.77
2022-10-28T06:18:24.791Z,101646.38
2022-10-28T06:20:56.146Z,101650.86
2022-10-28T06:23:27.577Z,101642.47
2022-10-28T06:25:59.204Z,101646.94
2022-10-28T06:28:29.201Z,101645.12
2022-10-28T06:31:03.891Z,101642.76
2022-10-28T06:33:33.550Z,101641.20
2022-10-28T06:36:03.389Z,101634.64
2022-10-28T06:38:32.603Z,101642.08
2022-10-28T06:41:01.953Z,101635.73
2022-10-28T06:43:31.195Z,101639.80
2022-10-28T06:46:04.368Z,101642.03
2022-10-28T06:48:35.286Z,101644.73
2022-10-28T06:51:04.900Z,101645.32
2022-10-28T06:53:34.133Z,101644.84
2022-10-28T06:56:03.792Z,101649.30
2022-10-28T06:58:33.010Z,101652.61
2022-10-28T07:01:06.451Z,101651.81
2022-10-28T07:03:35.957Z,101654.33
2022-10-28T07:06:06.307Z,101656.50
2022-10-28T07:08:35.639Z,101658.72
2022-10-28T07:11:05.319Z,101662.22
2022-10-28T07:13:34.720Z,101669.76
2022-10-28T07:16:05.257Z,101669.53
2022-10-28T07:18:34.552Z,101664.03
2022-10-28T07:21:04.013Z,101658.09
2022-10-28T07:23:34.407Z,101664.70
2022-10-28T07:26:04.105Z,101668.95
2022-10-28T07:28:33.576Z,101678.08
2022-10-28T07:31:03.697Z,101671.19
2022-10-28T07:33:33.048Z,101672.48
2022-10-28T07:36:04.924Z,101669.72
2022-10-28T07:38:34.817Z,101672.01
2022-10-28T07:41:08.039Z,101671.97
2022-10-28T07:43:38.935Z,101669.02
2022-10-28T07:46:09.255Z,101673.74
2022-10-28T07:48:39.226Z,101672.70
2022-10-28T07:51:09.926Z,101676.09
2022-10-28T07:53:39.137Z,101662.17
2022-10-28T07:56:10.328Z,101667.05
2022-10-28T07:58:39.603Z,101669.95
2022-10-28T08:01:10.392Z,101668.34
2022-10-28T08:03:39.891Z,101680.08
2022-10-28T08:06:16.934Z,101683.09
2022-10-28T08:08:48.104Z,101689.17
2022-10-28T08:11:23.396Z,101691.89
2022-10-28T08:13:53.897Z,101686.69
2022-10-28T08:16:23.305Z,101689.09
2022-10-28T08:18:53.305Z,101691.47
2022-10-28T08:21:22.611Z,101692.98
2022-10-28T08:23:52.004Z,101698.78
2022-10-28T08:26:21.604Z,101696.73
2022-10-28T08:28:51.036Z,101690.69
2022-10-28T08:31:20.537Z,101692.80
2022-10-28T08:33:49.915Z,101687.36
2022-10-28T08:36:19.412Z,101698.89
2022-10-28T08:38:48.941Z,101690.77
2022-10-28T08:41:42.043Z,101682.66
2022-10-28T08:44:23.392Z,101690.84
2022-10-28T08:47:16.478Z,101695.38
2022-10-28T08:49:49.360Z,101692.27
2022-10-28T08:52:34.099Z,101685.44
2022-10-28T08:55:18.364Z,101687.59
2022-10-28T08:57:50.922Z,101689.28
2022-10-28T09:00:21.066Z,101687.30
2022-10-28T09:03:14.871Z,101681.61
2022-10-28T09:05:47.900Z,101684.92
2022-10-28T09:08:32.493Z,101686.77
2022-10-28T09:11:10.764Z,101687.33
2022-10-28T09:13:49.444Z,101689.11
2022-10-28T09:16:47.895Z,101684.09
2022-10-28T09:19:29.144Z,101684.75
2022-10-28T09:22:07.379Z,101695.79
2022-10-28T09:24:48.870Z,101696.80
2022-10-28T09:27:24.083Z,101704.80
2022-10-28T09:30:19.807Z,101703.80
2022-10-28T09:32:55.785Z,101702.91
2022-10-28T09:35:27.972Z,101701.99
2022-10-28T09:38:09.226Z,101704.27
2022-10-28T09:40:41.104Z,101701.98
2022-10-28T09:43:35.399Z,101699.34
2022-10-28T09:46:10.733Z,101709.70
2022-10-28T09:48:42.348Z,101715.83
2022-10-28T09:51:14.791Z,101699.27
2022-10-28T09:53:47.986Z,101695.05
2022-10-28T09:56:17.192Z,101679.72
2022-10-28T09:58:47.723Z,101670.38
2022-10-28T10:01:18.825Z,101664.02
2022-10-28T10:03:52.060Z,101672.62
2022-10-28T10:06:38.379Z,101689.20
2022-10-28T10:09:09.474Z,101689.58
2022-10-28T10:11:46.267Z,101693.25
2022-10-28T10:14:24.850Z,101691.81
2022-10-28T10:17:02.086Z,101685.86
2022-10-28T10:19:51.151Z,101687.94
2022-10-28T10:22:31.383Z,101691.70
2022-10-28T10:25:00.802Z,101684.47
2022-10-28T10:27:32.071Z,101687.80
2022-10-28T10:30:01.838Z,101686.46
2022-10-28T10:32:32.858Z,101686.68
2022-10-28T10:35:09.245Z,101684.71
2022-10-28T10:37:41.863Z,101686.02
2022-10-28T10:40:31.327Z,101693.48
2022-10-28T10:43:24.554Z,101688.66
2022-10-28T10:46:08.938Z,101682.68
2022-10-28T10:48:38.611Z,101682.34
2022-10-28T10:51:10.514Z,101680.28
2022-10-28T10:53:41.661Z,101682.73
2022-10-28T10:56:13.801Z,101685.47
2022-10-28T10:58:49.298Z,101689.14
2022-10-28T11:01:24.162Z,101694.97
2022-10-28T11:03:59.113Z,101687.53
2022-10-28T11:06:34.243Z,101693.68
2022-10-28T11:09:05.958Z,101699.48
2022-10-28T11:11:40.675Z,101700.03
2022-10-28T11:14:15.830Z,101698.14
2022-10-28T11:16:50.921Z,101718.75
2022-10-28T11:19:29.182Z,101706.16
2022-10-28T11:22:24.450Z,101705.11
2022-10-28T11:25:24.674Z,101685.88
2022-10-28T11:28:24.465Z,101685.88
2022-10-28T11:31:02.975Z,101701.47
2022-10-28T11:33:39.143Z,101705.01
2022-10-28T11:36:37.015Z,101704.52
2022-10-28T11:39:09.574Z,101707.25
2022-10-28T11:41:51.924Z,101709.94
2022-10-28T11:44:44.005Z,101704.23
2022-10-28T11:47:34.491Z,101713.97
2022-10-28T11:50:13.255Z,101724.00
2022-10-28T11:52:45.929Z,101721.58
2022-10-28T11:55:24.106Z,101720.97
2022-10-28T12:00:48.827Z,101714.27
2022-10-28T12:03:33.349Z,101726.27
2022-10-28T12:06:08.444Z,101728.27
2022-10-28T12:11:40.323Z,101740.30
2022-10-28T12:14:13.600Z,101726.39
2022-10-28T12:16:45.477Z,101732.05
2022-10-28T12:19:18.097Z,101728.93
2022-10-28T12:21:51.207Z,101726.90
2022-10-28T12:24:22.396Z,101728.75
2022-10-28T12:27:03.519Z,101731.95
2022-10-28T12:29:38.408Z,101733.28
2022-10-28T12:32:10.969Z,101738.78
2022-10-28T12:34:41.237Z,101738.95
2022-10-28T12:37:35.083Z,101746.50
2022-10-28T12:40:33.126Z,101743.91
2022-10-28T12:43:08.553Z,101749.09
2022-10-28T12:45:39.431Z,101757.61
2022-10-28T12:48:17.653Z,101765.42
2022-10-28T12:50:54.928Z,101769.39
2022-10-28T12:53:33.238Z,101764.56
2022-10-28T12:56:03.858Z,101760.02
2022-10-28T12:58:48.080Z,101757.97
2022-10-28T13:01:19.294Z,101762.78
2022-10-28T13:03:50.661Z,101772.07
2022-10-28T13:06:42.653Z,101777.58
2022-10-28T13:09:39.689Z,101784.89
2022-10-28T13:12:15.135Z,101783.43
2022-10-28T13:17:54.334Z,101785.83
2022-10-28T13:20:26.986Z,101786.78
2022-10-28T13:22:57.323Z,101791.83
2022-10-28T13:25:55.794Z,101801.48
2022-10-28T13:28:30.711Z,101798.16
2022-10-28T13:31:07.849Z,101794.77
2022-10-28T13:33:39.292Z,101805.66
2022-10-28T13:36:23.829Z,101810.84
2022-10-28T13:38:59.877Z,101815.22
2022-10-28T13:41:43.324Z,101829.77
2022-10-28T13:44:17.705Z,101821.28
2022-10-28T13:47:07.753Z,101810.14
2022-10-28T13:49:38.462Z,101810.31
2022-10-28T13:52:13.781Z,101810.81
2022-10-28T13:54:49.548Z,101822.05
2022-10-28T13:57:29.696Z,101810.45
2022-10-28T14:00:04.802Z,101801.92
2022-10-28T14:02:44.300Z,101791.52
2022-10-28T14:05:18.617Z,101808.48
2022-10-28T14:07:58.785Z,101805.80
2022-10-28T14:10:30.520Z,101804.33
2022-10-28T14:13:20.441Z,101808.75
2022-10-28T14:15:50.882Z,101814.85
2022-10-28T14:20:59.130Z,101830.03
2022-10-28T14:23:31.934Z,101828.52
2022-10-28T14:26:04.625Z,101822.67
2022-10-28T14:28:38.197Z,101833.20
2022-10-28T14:31:14.564Z,101842.75
2022-10-28T14:33:46.298Z,101839.09
2022-10-28T14:36:21.240Z,101835.80
2022-10-28T14:42:27.058Z,101822.42
2022-10-28T14:45:02.522Z,101810.03
2022-10-28T14:47:46.786Z,101817.59
2022-10-28T14:50:18.319Z,101821.23
2022-10-28T14:52:48.842Z,101825.80
2022-10-28T14:55:24.130Z,101831.16
2022-10-28T14:57:53.929Z,101839.55
2022-10-28T15:00:29.441Z,101842.23
2022-10-28T15:02:58.777Z,101858.78
2022-10-28T15:05:32.420Z,101857.79
2022-10-28T15:08:04.489Z,101864.34
2022-10-28T15:10:34.963Z,101859.17
2022-10-28T15:13:04.777Z,101862.38
2022-10-28T15:15:35.310Z,101857.03
2022-10-28T15:18:07.671Z,101858.03
2022-10-28T15:20:37.484Z,101859.03
2022-10-28T15:23:18.357Z,101858.05
2022-10-28T15:25:47.872Z,101848.36
2022-10-28T15:28:17.144Z,101858.07
2022-10-28T15:30:47.037Z,101860.22
2022-10-28T15:33:21.593Z,101871.12
2022-10-28T15:35:51.400Z,101866.77
2022-10-28T15:38:32.909Z,101865.08
2022-10-28T15:41:02.507Z,101862.25
2022-10-28T15:43:32.540Z,101867.75
2022-10-28T15:46:12.411Z,101870.06
2022-10-28T15:48:41.692Z,101885.42
2022-10-28T15:51:16.172Z,101884.77
2022-10-28T15:53:46.599Z,101898.80
2022-10-28T15:56:31.386Z,101909.45
2022-10-28T15:59:20.060Z,101903.80
2022-10-28T16:01:49.501Z,101909.78
2022-10-28T16:04:27.920Z,101909.44
2022-10-28T16:06:58.174Z,101910.09
2022-10-28T16:09:38.137Z,101915.44
2022-10-28T16:12:18.875Z,101912.24
2022-10-28T16:14:59.811Z,101912.38
2022-10-28T16:17:34.441Z,101908.86
2022-10-28T16:20:18.367Z,101921.03
2022-10-28T16:22:46.764Z,101921.72
2022-10-28T16:25:20.064Z,101930.70
2022-10-28T16:27:50.752Z,101937.90
2022-10-28T16:30:20.021Z,101942.27
2022-10-28T16:32:50.399Z,101950.44
2022-10-28T16:35:22.468Z,101954.77
2022-10-28T16:37:55.542Z,101956.27
2022-10-28T16:40:49.744Z,101957.44
2022-10-28T16:42:55.487Z,101957.75
2022-10-28T16:45:25.053Z,101954.89
2022-10-28T16:47:54.814Z,101953.02
2022-10-28T16:50:24.291Z,101951.68
2022-10-28T16:52:55.435Z,101939.23
2022-10-28T16:55:24.671Z,101949.67
2022-10-28T16:57:54.462Z,101952.12
2022-10-28T17:00:23.912Z,101958.40
2022-10-28T17:02:54.045Z,101966.98
2022-10-28T17:05:24.570Z,101966.49
2022-10-28T17:07:58.161Z,101969.58
2022-10-28T17:10:27.933Z,101973.88
2022-10-28T17:12:57.767Z,101981.24
2022-10-28T17:15:27.419Z,101989.95
2022-10-28T17:17:57.937Z,101989.31
2022-10-28T17:20:27.540Z,101991.05
2022-10-28T17:22:58.142Z,101999.98
2022-10-28T17:25:28.031Z,102001.64
2022-10-28T17:27:57.979Z,102003.59
2022-10-28T17:30:27.715Z,102007.21
2022-10-28T17:32:57.174Z,102015.59
2022-10-28T17:35:27.274Z,102022.30
2022-10-28T17:37:57.331Z,102023.63
2022-10-28T17:40:27.056Z,102028.36
2022-10-28T17:42:58.563Z,102035.98
2022-10-28T17:45:28.120Z,102033.02
2022-10-28T17:47:57.410Z,102041.79
2022-10-28T17:50:26.722Z,102048.45
2022-10-28T17:52:56.507Z,102045.69
2022-10-28T17:55:26.240Z,102047.87
2022-10-28T17:57:55.887Z,102054.45
2022-10-28T18:00:26.064Z,102052.74
2022-10-28T18:02:58.488Z,102057.41
2022-10-28T18:05:27.914Z,102061.02
2022-10-28T18:07:57.470Z,102059.32
2022-10-28T18:10:27.127Z,102072.88
2022-10-28T18:12:56.825Z,102069.37
2022-10-28T18:15:26.636Z,102064.58
2022-10-28T18:17:55.937Z,102060.22
2022-10-28T18:20:25.203Z,102061.69
2022-10-28T18:22:54.878Z,102073.34
2022-10-28T18:25:24.409Z,102076.29
2022-10-28T18:27:53.634Z,102078.00
2022-10-28T18:30:23.159Z,102090.22
2022-10-28T18:32:52.952Z,102084.64
2022-10-28T18:35:22.793Z,102085.84
2022-10-28T18:37:52.292Z,102087.36
2022-10-28T18:40:21.858Z,102085.36
2022-10-28T18:42:51.054Z,102076.64
2022-10-28T18:45:20.399Z,102071.61
2022-10-28T18:47:50.286Z,102073.78
2022-10-28T18:50:19.811Z,102088.13
2022-10-28T18:52:49.053Z,102099.22
2022-10-28T18:55:18.534Z,102108.41
2022-10-28T18:57:50.567Z,102104.14
2022-10-28T19:00:20.747Z,102107.19
2022-10-28T19:02:50.675Z,102102.77
2022-10-28T19:05:20.846Z,102108.80
2022-10-28T19:07:50.074Z,102099.22
2022-10-28T19:10:19.403Z,102097.66
2022-10-28T19:12:52.052Z,102099.77
2022-10-28T19:15:19.824Z,102099.13
2022-10-28T19:17:49.177Z,102102.13
2022-10-28T19:23:04.338Z,102101.75
2022-10-28T19:25:33.603Z,102106.62
2022-10-28T19:28:03.022Z,102101.92
2022-10-28T19:30:32.269Z,102102.44
2022-10-28T19:33:01.656Z,102108.67
2022-10-28T19:35:32.631Z,102107.78
2022-10-28T19:38:01.960Z,102127.97
2022-10-28T19:40:31.441Z,102125.25
2022-10-28T19:43:00.769Z,102138.30
2022-10-28T19:45:30.132Z,102134.11
2022-10-28T19:48:03.368Z,102128.22
2022-10-28T19:50:32.722Z,102141.64
2022-10-28T19:53:02.141Z,102120.66
2022-10-28T19:55:31.417Z,102131.79
2022-10-28T19:58:00.657Z,102122.73
2022-10-28T20:00:29.884Z,102128.31
2022-10-28T20:02:59.307Z,102132.63
2022-10-28T20:05:28.708Z,102129.05
2022-10-28T20:07:58.002Z,102140.14
2022-10-28T20:10:27.216Z,102155.76
2022-10-28T20:12:56.763Z,102148.91
2022-10-28T20:15:26.341Z,102144.60
2022-10-28T20:17:56.013Z,102144.49
2022-10-28T20:20:25.411Z,102152.18
2022-10-28T20:22:55.228Z,102152.20
2022-10-28T20:25:25.113Z,102159.48
2022-10-28T20:27:54.992Z,102153.75
2022-10-28T20:30:24.836Z,102148.97
2022-10-28T20:32:55.826Z,102156.45
2022-10-28T20:35:25.505Z,102163.69
2022-10-28T20:37:58.109Z,102162.23
2022-10-28T20:40:27.744Z,102160.31
2022-10-28T20:42:57.575Z,102151.70
2022-10-28T20:45:27.133Z,102156.66
2022-10-28T20:47:56.693Z,102174.03
2022-10-28T20:50:25.960Z,102179.58
2022-10-28T20:52:55.663Z,102185.39
2022-10-28T20:55:25.355Z,102185.64
2022-10-28T20:57:54.688Z,102183.37
2022-10-28T21:00:24.261Z,102187.69
2022-10-28T21:02:55.802Z,102184.47
2022-10-28T21:05:25.632Z,102177.71
2022-10-28T21:07:55.437Z,102170.36
2022-10-28T21:10:24.957Z,102176.98
2022-10-28T21:12:54.254Z,102173.01
2022-10-28T21:15:23.603Z,102170.86
2022-10-28T21:17:53.533Z,102174.60
2022-10-28T21:20:23.761Z,102183.15
2022-10-28T21:22:53.422Z,102182.19
2022-10-28T21:25:24.790Z,102181.38
2022-10-28T21:27:54.245Z,102176.56
2022-10-28T21:30:23.764Z,102173.80
2022-10-28T21:32:53.547Z,102171.97
2022-10-28T21:35:23.135Z,102177.64
2022-10-28T21:37:52.961Z,102177.51
2022-10-28T21:40:22.432Z,102174.12
2022-10-28T21:42:51.893Z,102175.79
2022-10-28T21:45:21.233Z,102177.74
2022-10-28T21:47:50.935Z,102177.98
2022-10-28T21:50:20.316Z,102189.30
2022-10-28T21:52:49.762Z,102192.92
2022-10-28T21:55:26.685Z,102193.16
2022-10-28T21:57:50.045Z,102193.02
2022-10-28T22:00:20.551Z,102189.05
2022-10-28T22:02:49.869Z,102188.23
2022-10-28T22:05:19.300Z,102195.30
2022-10-28T22:07:48.518Z,102190.61
2022-10-28T22:10:17.836Z,102191.23
2022-10-28T22:12:47.081Z,102190.60
2022-10-28T22:15:17.122Z,102196.27
2022-10-28T22:17:46.384Z,102201.94
2022-10-28T22:20:15.860Z,102200.13
2022-10-28T22:22:45.267Z,102202.41
2022-10-28T22:25:14.894Z,102203.73
2022-10-28T22:27:44.982Z,102207.98
2022-10-28T22:30:15.232Z,102207.23
2022-10-28T22:32:44.443Z,102217.23
2022-10-28T22:35:13.749Z,102222.86
2022-10-28T22:37:43.044Z,102221.26
2022-10-28T22:40:12.582Z,102219.63
2022-10-28T22:42:41.808Z,102221.67
2022-10-28T22:45:11.305Z,102215.40
2022-10-28T22:47:40.760Z,102206.87
2022-10-28T22:50:10.619Z,102199.17
2022-10-28T22:52:40.081Z,102201.82
2022-10-28T22:55:09.773Z,102205.54
2022-10-28T22:57:39.162Z,102194.56
2022-10-28T23:00:09.699Z,102200.38
2022-10-28T23:02:39.317Z,102202.52
2022-10-28T23:05:09.404Z,102205.05
2022-10-28T23:07:38.653Z,102210.97
2022-10-28T23:10:08.611Z,102213.52
2022-10-28T23:12:37.872Z,102211.21
2022-10-28T23:15:08.146Z,102218.32
2022-10-28T23:17:37.369Z,102216.50
2022-10-28T23:20:07.424Z,102223.95
2022-10-28T23:22:36.654Z,102220.23
2022-10-28T23:25:06.463Z,102226.23
2022-10-28T23:27:35.683Z,102227.66
2022-10-28T23:30:05.667Z,102227.79
2022-10-28T23:32:34.924Z,102221.76
2022-10-28T23:35:04.867Z,102216.70
2022-10-28T23:37:34.352Z,102215.12
2022-10-28T23:40:03.737Z,102223.45
2022-10-28T23:42:33.061Z,102227.21
2022-10-28T23:45:02.631Z,102222.52
2022-10-28T23:47:31.876Z,102213.86
2022-10-28T23:50:01.241Z,102209.14
2022-10-28T23:52:30.482Z,102189.08
2022-10-28T23:54:59.723Z,102182.32
2022-10-28T23:57:28.949Z,102192.30
2022-10-28T23:59:58.324Z,102193.98
